sensor_id;sensor_type;location;lat;lon;timestamp;temperature;humidity
70202;DHT22;57724;52.164;5.408;2022-08-14T00:01:30;23.60;66.70
70202;DHT22;57724;52.164;5.408;2022-08-14T00:03:57;23.50;57.80
70202;DHT22;57724;52.164;5.408;2022-08-14T00:06:24;23.40;67.20
70202;DHT22;57724;52.164;5.408;2022-08-14T00:08:55;23.60;67.70
70202;DHT22;57724;52.164;5.408;2022-08-14T00:11:26;24.00;68.30
70202;DHT22;57724;52.164;5.408;2022-08-14T00:16:27;24.20;69.00
70202;DHT22;57724;52.164;5.408;2022-08-14T00:19:11;24.60;69.50
70202;DHT22;57724;52.164;5.408;2022-08-14T00:21:47;24.20;55.80
70202;DHT22;57724;52.164;5.408;2022-08-14T00:26:55;24.10;55.50
70202;DHT22;57724;52.164;5.408;2022-08-14T00:29:22;25.20;70.70
70202;DHT22;57724;52.164;5.408;2022-08-14T00:31:51;24.20;57.30
70202;DHT22;57724;52.164;5.408;2022-08-14T00:34:22;23.40;70.00
70202;DHT22;57724;52.164;5.408;2022-08-14T00:37:10;24.40;70.60
70202;DHT22;57724;52.164;5.408;2022-08-14T00:39:38;23.90;70.40
70202;DHT22;57724;52.164;5.408;2022-08-14T00:42:08;23.20;70.00
70202;DHT22;57724;52.164;5.408;2022-08-14T00:47:15;23.40;70.60
70202;DHT22;57724;52.164;5.408;2022-08-14T00:49:44;22.80;67.10
70202;DHT22;57724;52.164;5.408;2022-08-14T00:52:12;22.90;70.40
70202;DHT22;57724;52.164;5.408;2022-08-14T00:54:45;22.80;61.00
70202;DHT22;57724;52.164;5.408;2022-08-14T00:57:17;22.80;70.70
70202;DHT22;57724;52.164;5.408;2022-08-14T00:59:46;22.80;68.10
70202;DHT22;57724;52.164;5.408;2022-08-14T01:02:19;22.70;61.10
70202;DHT22;57724;52.164;5.408;2022-08-14T01:04:55;24.80;72.60
70202;DHT22;57724;52.164;5.408;2022-08-14T01:07:25;24.90;72.70
70202;DHT22;57724;52.164;5.408;2022-08-14T01:09:55;23.10;72.00
70202;DHT22;57724;52.164;5.408;2022-08-14T01:12:22;23.80;58.50
70202;DHT22;57724;52.164;5.408;2022-08-14T01:14:56;22.80;58.30
70202;DHT22;57724;52.164;5.408;2022-08-14T01:17:24;25.10;61.10
70202;DHT22;57724;52.164;5.408;2022-08-14T01:20:16;24.90;59.60
70202;DHT22;57724;52.164;5.408;2022-08-14T01:23:10;23.40;73.10
70202;DHT22;57724;52.164;5.408;2022-08-14T01:25:46;24.10;73.70
70202;DHT22;57724;52.164;5.408;2022-08-14T01:28:14;22.30;72.70
70202;DHT22;57724;52.164;5.408;2022-08-14T01:31:01;23.20;73.40
70202;DHT22;57724;52.164;5.408;2022-08-14T01:33:31;22.40;73.20
70202;DHT22;57724;52.164;5.408;2022-08-14T01:36:19;22.40;65.60
70202;DHT22;57724;52.164;5.408;2022-08-14T01:38:52;23.90;74.40
70202;DHT22;57724;52.164;5.408;2022-08-14T01:41:23;23.20;60.20
70202;DHT22;57724;52.164;5.408;2022-08-14T01:43:59;22.50;74.10
70202;DHT22;57724;52.164;5.408;2022-08-14T01:46:30;22.10;63.60
70202;DHT22;57724;52.164;5.408;2022-08-14T01:49:06;23.10;61.20
70202;DHT22;57724;52.164;5.408;2022-08-14T01:51:33;22.40;67.30
70202;DHT22;57724;52.164;5.408;2022-08-14T01:54:08;23.60;76.00
70202;DHT22;57724;52.164;5.408;2022-08-14T01:56:40;23.00;62.20
70202;DHT22;57724;52.164;5.408;2022-08-14T02:01:45;21.80;75.80
70202;DHT22;57724;52.164;5.408;2022-08-14T02:04:26;22.80;62.50
70202;DHT22;57724;52.164;5.408;2022-08-14T02:07:15;21.70;75.80
70202;DHT22;57724;52.164;5.408;2022-08-14T02:10:00;21.80;76.00
70202;DHT22;57724;52.164;5.408;2022-08-14T02:12:27;21.90;67.70
70202;DHT22;57724;52.164;5.408;2022-08-14T02:14:56;21.70;76.40
70202;DHT22;57724;52.164;5.408;2022-08-14T02:17:28;22.70;63.50
70202;DHT22;57724;52.164;5.408;2022-08-14T02:19:56;21.60;76.20
70202;DHT22;57724;52.164;5.408;2022-08-14T02:22:24;22.20;77.50
70202;DHT22;57724;52.164;5.408;2022-08-14T02:25:11;24.30;66.00
70202;DHT22;57724;52.164;5.408;2022-08-14T02:27:39;23.90;78.60
70202;DHT22;57724;52.164;5.408;2022-08-14T02:30:31;21.60;77.70
70202;DHT22;57724;52.164;5.408;2022-08-14T02:32:59;23.00;78.70
70202;DHT22;57724;52.164;5.408;2022-08-14T02:35:27;22.00;78.30
70202;DHT22;57724;52.164;5.408;2022-08-14T02:37:59;23.40;79.40
70202;DHT22;57724;52.164;5.408;2022-08-14T02:40:30;22.90;79.20
70202;DHT22;57724;52.164;5.408;2022-08-14T02:43:00;22.50;65.70
70202;DHT22;57724;52.164;5.408;2022-08-14T02:45:31;21.80;72.80
70202;DHT22;57724;52.164;5.408;2022-08-14T02:48:10;21.20;78.50
70202;DHT22;57724;52.164;5.408;2022-08-14T02:50:58;21.10;78.70
70202;DHT22;57724;52.164;5.408;2022-08-14T02:53:28;21.20;79.10
70202;DHT22;57724;52.164;5.408;2022-08-14T02:55:56;22.20;78.90
70202;DHT22;57724;52.164;5.408;2022-08-14T02:58:29;21.30;65.20
70202;DHT22;57724;52.164;5.408;2022-08-14T03:00:58;21.70;79.50
70202;DHT22;57724;52.164;5.408;2022-08-14T03:03:27;21.00;68.80
70202;DHT22;57724;52.164;5.408;2022-08-14T03:05:58;22.60;75.30
70202;DHT22;57724;52.164;5.408;2022-08-14T03:08:26;22.20;80.00
70202;DHT22;57724;52.164;5.408;2022-08-14T03:10:58;22.60;80.40
70202;DHT22;57724;52.164;5.408;2022-08-14T03:15:55;21.30;80.10
70202;DHT22;57724;52.164;5.408;2022-08-14T03:18:25;22.10;66.80
70202;DHT22;57724;52.164;5.408;2022-08-14T03:21:04;21.00;67.50
70202;DHT22;57724;52.164;5.408;2022-08-14T03:23:31;23.20;81.40
70202;DHT22;57724;52.164;5.408;2022-08-14T03:26:08;21.00;80.40
70202;DHT22;57724;52.164;5.408;2022-08-14T03:28:46;21.80;67.30
70202;DHT22;57724;52.164;5.408;2022-08-14T03:31:14;20.80;80.80
70202;DHT22;57724;52.164;5.408;2022-08-14T03:33:41;21.60;74.20
70202;DHT22;57724;52.164;5.408;2022-08-14T03:36:13;21.20;69.40
70202;DHT22;57724;52.164;5.408;2022-08-14T03:39:03;21.80;67.80
70202;DHT22;57724;52.164;5.408;2022-08-14T03:41:49;20.70;81.10
70202;DHT22;57724;52.164;5.408;2022-08-14T03:44:16;21.00;81.40
70202;DHT22;57724;52.164;5.408;2022-08-14T03:47:03;22.00;82.30
70202;DHT22;57724;52.164;5.408;2022-08-14T03:49:31;20.50;81.70
70202;DHT22;57724;52.164;5.408;2022-08-14T03:51:59;22.60;80.40
70202;DHT22;57724;52.164;5.408;2022-08-14T03:54:50;20.50;82.10
70202;DHT22;57724;52.164;5.408;2022-08-14T03:57:18;20.40;82.40
70202;DHT22;57724;52.164;5.408;2022-08-14T04:04:59;20.40;82.70
70202;DHT22;57724;52.164;5.408;2022-08-14T04:10:16;21.80;83.90
70202;DHT22;57724;52.164;5.408;2022-08-14T04:12:57;21.00;83.60
70202;DHT22;57724;52.164;5.408;2022-08-14T04:15:30;21.60;83.90
70202;DHT22;57724;52.164;5.408;2022-08-14T04:17:56;22.50;83.70
70202;DHT22;57724;52.164;5.408;2022-08-14T04:20:29;22.60;84.60
70202;DHT22;57724;52.164;5.408;2022-08-14T04:22:56;22.50;84.70
70202;DHT22;57724;52.164;5.408;2022-08-14T04:30:29;22.00;74.80
70202;DHT22;57724;52.164;5.408;2022-08-14T04:32:58;20.40;84.20
70202;DHT22;57724;52.164;5.408;2022-08-14T04:35:34;21.20;70.60
70202;DHT22;57724;52.164;5.408;2022-08-14T04:38:21;21.10;80.30
70202;DHT22;57724;52.164;5.408;2022-08-14T04:41:07;20.00;84.10
70202;DHT22;57724;52.164;5.408;2022-08-14T04:43:56;21.00;84.70
70202;DHT22;57724;52.164;5.408;2022-08-14T04:46:24;21.20;70.90
70202;DHT22;57724;52.164;5.408;2022-08-14T04:49:11;20.00;84.10
70202;DHT22;57724;52.164;5.408;2022-08-14T04:51:41;22.50;85.50
70202;DHT22;57724;52.164;5.408;2022-08-14T04:54:22;20.90;84.60
70202;DHT22;57724;52.164;5.408;2022-08-14T04:59:21;22.60;85.60
70202;DHT22;57724;52.164;5.408;2022-08-14T05:04:21;20.10;84.20
70202;DHT22;57724;52.164;5.408;2022-08-14T05:06:52;21.40;70.90
70202;DHT22;57724;52.164;5.408;2022-08-14T05:09:23;21.50;70.90
70202;DHT22;57724;52.164;5.408;2022-08-14T05:17:21;20.80;83.90
70202;DHT22;57724;52.164;5.408;2022-08-14T05:19:57;21.60;83.00
70202;DHT22;57724;52.164;5.408;2022-08-14T05:22:44;21.00;84.00
70202;DHT22;57724;52.164;5.408;2022-08-14T05:27:40;23.20;69.40
70202;DHT22;57724;52.164;5.408;2022-08-14T05:30:08;20.90;68.80
70202;DHT22;57724;52.164;5.408;2022-08-14T05:35:04;20.90;82.90
70202;DHT22;57724;52.164;5.408;2022-08-14T05:37:33;21.90;70.30
70202;DHT22;57724;52.164;5.408;2022-08-14T05:47:27;21.10;82.40
70202;DHT22;57724;52.164;5.408;2022-08-14T05:50:06;23.00;82.80
70202;DHT22;57724;52.164;5.408;2022-08-14T05:52:45;21.80;76.20
70202;DHT22;57724;52.164;5.408;2022-08-14T05:57:52;23.50;70.80
70202;DHT22;57724;52.164;5.408;2022-08-14T06:00:21;22.00;74.60
70202;DHT22;57724;52.164;5.408;2022-08-14T06:02:55;23.60;82.10
70202;DHT22;57724;52.164;5.408;2022-08-14T06:05:23;24.30;82.30
70202;DHT22;57724;52.164;5.408;2022-08-14T06:07:55;21.90;80.80
70202;DHT22;57724;52.164;5.408;2022-08-14T06:10:23;22.80;81.10
70202;DHT22;57724;52.164;5.408;2022-08-14T06:12:54;22.00;79.50
70202;DHT22;57724;52.164;5.408;2022-08-14T06:17:56;24.60;73.40
70202;DHT22;57724;52.164;5.408;2022-08-14T06:20:25;24.90;81.50
70202;DHT22;57724;52.164;5.408;2022-08-14T06:22:54;23.50;66.60
70202;DHT22;57724;52.164;5.408;2022-08-14T06:25:22;23.90;77.80
70202;DHT22;57724;52.164;5.408;2022-08-14T06:27:50;24.00;80.00
70202;DHT22;57724;52.164;5.408;2022-08-14T06:30:20;24.00;66.00
70202;DHT22;57724;52.164;5.408;2022-08-14T06:32:49;22.80;78.30
70202;DHT22;57724;52.164;5.408;2022-08-14T06:35:19;25.50;69.90
70202;DHT22;57724;52.164;5.408;2022-08-14T06:37:59;25.70;72.70
70202;DHT22;57724;52.164;5.408;2022-08-14T06:40:34;25.90;79.20
70202;DHT22;57724;52.164;5.408;2022-08-14T06:43:07;24.60;62.40
70202;DHT22;57724;52.164;5.408;2022-08-14T06:45:35;23.50;70.20
70202;DHT22;57724;52.164;5.408;2022-08-14T06:48:10;24.90;77.00
70202;DHT22;57724;52.164;5.408;2022-08-14T06:50:44;26.40;76.50
70202;DHT22;57724;52.164;5.408;2022-08-14T06:53:13;26.30;77.20
70202;DHT22;57724;52.164;5.408;2022-08-14T06:55:41;25.50;75.90
70202;DHT22;57724;52.164;5.408;2022-08-14T06:58:27;24.40;74.80
70202;DHT22;57724;52.164;5.408;2022-08-14T07:00:58;24.00;74.30
70202;DHT22;57724;52.164;5.408;2022-08-14T07:03:53;24.40;74.10
70202;DHT22;57724;52.164;5.408;2022-08-14T07:06:51;25.70;60.70
70202;DHT22;57724;52.164;5.408;2022-08-14T07:09:26;26.50;68.80
70202;DHT22;57724;52.164;5.408;2022-08-14T07:12:09;27.50;74.40
70202;DHT22;57724;52.164;5.408;2022-08-14T07:14:56;26.10;66.30
70202;DHT22;57724;52.164;5.408;2022-08-14T07:19:57;27.60;72.80
70202;DHT22;57724;52.164;5.408;2022-08-14T07:25:11;26.90;71.80
70202;DHT22;57724;52.164;5.408;2022-08-14T07:27:40;25.20;70.30
70202;DHT22;57724;52.164;5.408;2022-08-14T07:30:08;26.40;58.60
70202;DHT22;57724;52.164;5.408;2022-08-14T07:32:55;28.10;71.80
70202;DHT22;57724;52.164;5.408;2022-08-14T07:35:22;27.60;70.80
70202;DHT22;57724;52.164;5.408;2022-08-14T07:40:18;26.20;69.20
70202;DHT22;57724;52.164;5.408;2022-08-14T07:42:47;26.60;67.00
70202;DHT22;57724;52.164;5.408;2022-08-14T07:45:16;28.20;69.70
70202;DHT22;57724;52.164;5.408;2022-08-14T07:47:43;29.10;70.10
70202;DHT22;57724;52.164;5.408;2022-08-14T07:50:17;26.40;67.90
70202;DHT22;57724;52.164;5.408;2022-08-14T07:52:47;27.90;54.70
70202;DHT22;57724;52.164;5.408;2022-08-14T07:55:15;27.70;55.80
70202;DHT22;57724;52.164;5.408;2022-08-14T08:00:19;27.80;65.80
70202;DHT22;57724;52.164;5.408;2022-08-14T08:02:57;29.80;67.00
70202;DHT22;57724;52.164;5.408;2022-08-14T08:05:26;28.70;53.50
70202;DHT22;57724;52.164;5.408;2022-08-14T08:07:53;29.70;66.00
70202;DHT22;57724;52.164;5.408;2022-08-14T08:10:23;27.60;63.80
70202;DHT22;57724;52.164;5.408;2022-08-14T08:13:20;27.90;63.80
70202;DHT22;57724;52.164;5.408;2022-08-14T08:15:52;27.90;63.00
70202;DHT22;57724;52.164;5.408;2022-08-14T08:18:19;28.10;63.10
70202;DHT22;57724;52.164;5.408;2022-08-14T08:20:56;30.80;63.90
70202;DHT22;57724;52.164;5.408;2022-08-14T08:23:27;28.60;53.80
70202;DHT22;57724;52.164;5.408;2022-08-14T08:31:07;28.80;60.40
70202;DHT22;57724;52.164;5.408;2022-08-14T08:33:34;29.70;60.60
70202;DHT22;57724;52.164;5.408;2022-08-14T08:36:08;28.90;59.60
70202;DHT22;57724;52.164;5.408;2022-08-14T08:38:44;30.40;46.00
70202;DHT22;57724;52.164;5.408;2022-08-14T08:41:46;31.50;60.50
70202;DHT22;57724;52.164;5.408;2022-08-14T08:44:18;30.00;58.40
70202;DHT22;57724;52.164;5.408;2022-08-14T08:47:00;30.60;58.10
70202;DHT22;57724;52.164;5.408;2022-08-14T08:49:40;31.90;58.80
70202;DHT22;57724;52.164;5.408;2022-08-14T08:52:24;30.90;49.20
70202;DHT22;57724;52.164;5.408;2022-08-14T08:54:58;30.50;56.10
70202;DHT22;57724;52.164;5.408;2022-08-14T08:57:33;32.20;44.30
70202;DHT22;57724;52.164;5.408;2022-08-14T09:00:12;31.20;55.30
70202;DHT22;57724;52.164;5.408;2022-08-14T09:03:11;31.00;54.50
70202;DHT22;57724;52.164;5.408;2022-08-14T09:05:50;33.60;56.00
70202;DHT22;57724;52.164;5.408;2022-08-14T09:08:23;33.70;56.20
70202;DHT22;57724;52.164;5.408;2022-08-14T09:11:03;32.40;54.30
70202;DHT22;57724;52.164;5.408;2022-08-14T09:13:47;32.40;41.60
70202;DHT22;57724;52.164;5.408;2022-08-14T09:16:21;32.50;54.20
70202;DHT22;57724;52.164;5.408;2022-08-14T09:18:50;32.70;52.60
70202;DHT22;57724;52.164;5.408;2022-08-14T09:21:19;32.90;40.40
70202;DHT22;57724;52.164;5.408;2022-08-14T09:23:53;34.20;54.50
70202;DHT22;57724;52.164;5.408;2022-08-14T09:26:41;32.30;53.00
70202;DHT22;57724;52.164;5.408;2022-08-14T09:29:10;34.00;53.40
70202;DHT22;57724;52.164;5.408;2022-08-14T09:31:42;32.10;52.10
70202;DHT22;57724;52.164;5.408;2022-08-14T09:40:29;33.70;39.10
70202;DHT22;57724;52.164;5.408;2022-08-14T09:43:18;34.00;37.60
70202;DHT22;57724;52.164;5.408;2022-08-14T09:45:48;34.00;51.30
70202;DHT22;57724;52.164;5.408;2022-08-14T09:48:21;34.00;51.60
70202;DHT22;57724;52.164;5.408;2022-08-14T09:50:57;34.90;50.60
70202;DHT22;57724;52.164;5.408;2022-08-14T09:53:42;33.20;50.40
70202;DHT22;57724;52.164;5.408;2022-08-14T09:56:29;34.20;37.80
70202;DHT22;57724;52.164;5.408;2022-08-14T09:59:09;33.40;50.20
70202;DHT22;57724;52.164;5.408;2022-08-14T10:01:42;34.30;38.00
70202;DHT22;57724;52.164;5.408;2022-08-14T10:04:23;34.60;37.00
70202;DHT22;57724;52.164;5.408;2022-08-14T10:07:04;34.50;35.00
70202;DHT22;57724;52.164;5.408;2022-08-14T10:09:31;33.70;47.50
70202;DHT22;57724;52.164;5.408;2022-08-14T10:12:01;35.60;36.20
70202;DHT22;57724;52.164;5.408;2022-08-14T10:14:33;35.00;35.30
70202;DHT22;57724;52.164;5.408;2022-08-14T10:17:04;36.10;36.40
70202;DHT22;57724;52.164;5.408;2022-08-14T10:19:34;34.80;35.20
70202;DHT22;57724;52.164;5.408;2022-08-14T10:22:12;35.80;47.80
70202;DHT22;57724;52.164;5.408;2022-08-14T10:25:12;35.00;34.60
70202;DHT22;57724;52.164;5.408;2022-08-14T10:27:41;35.00;33.40
70202;DHT22;57724;52.164;5.408;2022-08-14T10:30:14;35.20;34.00
70202;DHT22;57724;52.164;5.408;2022-08-14T10:32:48;35.20;45.60
70202;DHT22;57724;52.164;5.408;2022-08-14T10:35:17;35.20;33.40
70202;DHT22;57724;52.164;5.408;2022-08-14T10:37:50;36.30;47.50
70202;DHT22;57724;52.164;5.408;2022-08-14T10:40:29;35.90;34.10
70202;DHT22;57724;52.164;5.408;2022-08-14T10:43:21;35.20;45.60
70202;DHT22;57724;52.164;5.408;2022-08-14T10:46:00;35.70;33.10
70202;DHT22;57724;52.164;5.408;2022-08-14T10:48:59;35.40;32.00
70202;DHT22;57724;52.164;5.408;2022-08-14T10:51:30;35.50;33.10
70202;DHT22;57724;52.164;5.408;2022-08-14T10:54:05;35.50;32.30
70202;DHT22;57724;52.164;5.408;2022-08-14T10:56:53;35.40;32.30
70202;DHT22;57724;52.164;5.408;2022-08-14T10:59:21;35.50;45.20
70202;DHT22;57724;52.164;5.408;2022-08-14T11:01:56;35.70;32.00
70202;DHT22;57724;52.164;5.408;2022-08-14T11:04:25;34.60;42.60
70202;DHT22;57724;52.164;5.408;2022-08-14T11:06:56;37.30;46.10
70202;DHT22;57724;52.164;5.408;2022-08-14T11:09:23;37.10;44.50
70202;DHT22;57724;52.164;5.408;2022-08-14T11:11:56;35.50;43.40
70202;DHT22;57724;52.164;5.408;2022-08-14T11:14:57;35.70;30.80
70202;DHT22;57724;52.164;5.408;2022-08-14T11:17:30;36.70;45.10
70202;DHT22;57724;52.164;5.408;2022-08-14T11:19:59;37.20;44.50
70202;DHT22;57724;52.164;5.408;2022-08-14T11:22:27;35.00;42.90
70202;DHT22;57724;52.164;5.408;2022-08-14T11:25:17;34.80;42.60
70202;DHT22;57724;52.164;5.408;2022-08-14T11:27:46;34.60;43.40
70202;DHT22;57724;52.164;5.408;2022-08-14T11:30:17;36.60;43.50
70202;DHT22;57724;52.164;5.408;2022-08-14T11:33:05;34.90;42.90
70202;DHT22;57724;52.164;5.408;2022-08-14T11:35:35;37.70;44.70
70202;DHT22;57724;52.164;5.408;2022-08-14T11:38:14;37.40;43.40
70202;DHT22;57724;52.164;5.408;2022-08-14T11:40:43;38.10;43.40
70202;DHT22;57724;52.164;5.408;2022-08-14T11:43:14;37.70;42.30
70202;DHT22;57724;52.164;5.408;2022-08-14T11:45:45;38.50;42.50
70202;DHT22;57724;52.164;5.408;2022-08-14T11:48:19;38.10;42.40
70202;DHT22;57724;52.164;5.408;2022-08-14T11:51:12;36.40;40.80
70202;DHT22;57724;52.164;5.408;2022-08-14T11:53:41;38.40;41.50
70202;DHT22;57724;52.164;5.408;2022-08-14T11:56:11;38.00;28.60
70202;DHT22;57724;52.164;5.408;2022-08-14T11:58:39;37.50;27.80
70202;DHT22;57724;52.164;5.408;2022-08-14T12:01:08;37.50;28.40
70202;DHT22;57724;52.164;5.408;2022-08-14T12:03:43;36.00;41.30
70202;DHT22;57724;52.164;5.408;2022-08-14T12:06:23;36.90;42.60
70202;DHT22;57724;52.164;5.408;2022-08-14T12:09:05;35.50;41.40
70202;DHT22;57724;52.164;5.408;2022-08-14T12:11:41;36.60;42.50
70202;DHT22;57724;52.164;5.408;2022-08-14T12:14:14;35.90;29.50
70202;DHT22;57724;52.164;5.408;2022-08-14T12:17:07;34.70;41.30
70202;DHT22;57724;52.164;5.408;2022-08-14T12:19:43;36.60;44.00
70202;DHT22;57724;52.164;5.408;2022-08-14T12:22:18;35.70;31.00
70202;DHT22;57724;52.164;5.408;2022-08-14T12:24:56;34.70;42.70
70202;DHT22;57724;52.164;5.408;2022-08-14T12:27:34;34.10;44.20
70202;DHT22;57724;52.164;5.408;2022-08-14T12:30:37;34.00;42.30
70202;DHT22;57724;52.164;5.408;2022-08-14T12:33:26;36.00;44.30
70202;DHT22;57724;52.164;5.408;2022-08-14T12:36:06;35.70;44.40
70202;DHT22;57724;52.164;5.408;2022-08-14T12:41:15;36.10;44.10
70202;DHT22;57724;52.164;5.408;2022-08-14T12:43:55;34.20;42.90
70202;DHT22;57724;52.164;5.408;2022-08-14T12:46:33;35.90;45.20
70202;DHT22;57724;52.164;5.408;2022-08-14T12:51:36;34.10;43.10
70202;DHT22;57724;52.164;5.408;2022-08-14T12:54:17;35.60;43.40
70202;DHT22;57724;52.164;5.408;2022-08-14T12:57:04;34.50;42.90
70202;DHT22;57724;52.164;5.408;2022-08-14T12:59:31;36.10;44.10
70202;DHT22;57724;52.164;5.408;2022-08-14T13:02:02;34.70;43.20
70202;DHT22;57724;52.164;5.408;2022-08-14T13:04:35;34.50;43.00
70202;DHT22;57724;52.164;5.408;2022-08-14T13:07:03;35.30;44.00
70202;DHT22;57724;52.164;5.408;2022-08-14T13:09:34;35.60;44.40
70202;DHT22;57724;52.164;5.408;2022-08-14T13:12:06;36.00;44.80
70202;DHT22;57724;52.164;5.408;2022-08-14T13:14:57;35.70;44.70
70202;DHT22;57724;52.164;5.408;2022-08-14T13:17:26;33.50;43.30
70202;DHT22;57724;52.164;5.408;2022-08-14T13:19:56;34.10;30.40
70202;DHT22;57724;52.164;5.408;2022-08-14T13:22:23;33.30;44.00
70202;DHT22;57724;52.164;5.408;2022-08-14T13:25:04;33.20;43.60
70202;DHT22;57724;52.164;5.408;2022-08-14T13:27:32;34.20;44.50
70202;DHT22;57724;52.164;5.408;2022-08-14T13:30:08;34.30;44.20
70202;DHT22;57724;52.164;5.408;2022-08-14T13:32:40;35.00;44.70
70202;DHT22;57724;52.164;5.408;2022-08-14T13:35:11;34.80;30.40
70202;DHT22;57724;52.164;5.408;2022-08-14T13:37:45;36.00;44.80
70202;DHT22;57724;52.164;5.408;2022-08-14T13:40:18;34.80;31.80
70202;DHT22;57724;52.164;5.408;2022-08-14T13:42:47;35.40;44.20
70202;DHT22;57724;52.164;5.408;2022-08-14T13:45:18;35.40;44.30
70202;DHT22;57724;52.164;5.408;2022-08-14T13:47:59;35.00;43.20
70202;DHT22;57724;52.164;5.408;2022-08-14T13:50:26;33.80;42.50
70202;DHT22;57724;52.164;5.408;2022-08-14T13:52:56;34.30;43.10
70202;DHT22;57724;52.164;5.408;2022-08-14T13:55:27;35.90;43.50
70202;DHT22;57724;52.164;5.408;2022-08-14T13:58:00;36.70;43.40
70202;DHT22;57724;52.164;5.408;2022-08-14T14:00:33;37.50;43.10
70202;DHT22;57724;52.164;5.408;2022-08-14T14:03:02;36.20;29.90
70202;DHT22;57724;52.164;5.408;2022-08-14T14:05:34;37.10;42.90
70202;DHT22;57724;52.164;5.408;2022-08-14T14:08:21;36.00;29.50
70202;DHT22;57724;52.164;5.408;2022-08-14T14:11:09;36.00;43.00
70202;DHT22;57724;52.164;5.408;2022-08-14T14:13:36;35.50;43.30
70202;DHT22;57724;52.164;5.408;2022-08-14T14:16:11;35.70;30.50
70202;DHT22;57724;52.164;5.408;2022-08-14T14:18:54;36.90;43.10
70202;DHT22;57724;52.164;5.408;2022-08-14T14:21:24;35.70;29.70
70202;DHT22;57724;52.164;5.408;2022-08-14T14:23:54;35.90;29.50
70202;DHT22;57724;52.164;5.408;2022-08-14T14:26:23;36.10;41.60
70202;DHT22;57724;52.164;5.408;2022-08-14T14:28:53;37.60;41.20
70202;DHT22;57724;52.164;5.408;2022-08-14T14:31:26;36.20;28.40
70202;DHT22;57724;52.164;5.408;2022-08-14T14:34:03;36.30;29.30
70202;DHT22;57724;52.164;5.408;2022-08-14T14:36:51;34.80;40.10
70202;DHT22;57724;52.164;5.408;2022-08-14T14:39:23;36.00;42.10
70202;DHT22;57724;52.164;5.408;2022-08-14T14:41:57;34.40;40.50
70202;DHT22;57724;52.164;5.408;2022-08-14T14:44:34;35.70;29.20
70202;DHT22;57724;52.164;5.408;2022-08-14T14:47:10;35.30;42.30
70202;DHT22;57724;52.164;5.408;2022-08-14T14:49:38;35.80;29.50
70202;DHT22;57724;52.164;5.408;2022-08-14T14:52:20;35.60;29.00
70202;DHT22;57724;52.164;5.408;2022-08-14T14:54:55;35.50;29.00
70202;DHT22;57724;52.164;5.408;2022-08-14T14:57:25;34.20;40.80
70202;DHT22;57724;52.164;5.408;2022-08-14T15:00:07;36.60;42.60
70202;DHT22;57724;52.164;5.408;2022-08-14T15:02:44;36.40;42.70
70202;DHT22;57724;52.164;5.408;2022-08-14T15:05:14;35.40;41.70
70202;DHT22;57724;52.164;5.408;2022-08-14T15:07:43;34.60;40.00
70202;DHT22;57724;52.164;5.408;2022-08-14T15:10:13;35.00;40.50
70202;DHT22;57724;52.164;5.408;2022-08-14T15:12:56;36.20;41.90
70202;DHT22;57724;52.164;5.408;2022-08-14T15:15:30;35.90;29.10
70202;DHT22;57724;52.164;5.408;2022-08-14T15:17:58;35.50;42.00
70202;DHT22;57724;52.164;5.408;2022-08-14T15:20:27;35.70;42.70
70202;DHT22;57724;52.164;5.408;2022-08-14T15:22:58;36.50;42.70
70202;DHT22;57724;52.164;5.408;2022-08-14T15:25:39;36.00;29.70
70202;DHT22;57724;52.164;5.408;2022-08-14T15:28:06;37.10;44.20
70202;DHT22;57724;52.164;5.408;2022-08-14T15:30:43;36.50;29.90
70202;DHT22;57724;52.164;5.408;2022-08-14T15:33:17;35.00;41.40
70202;DHT22;57724;52.164;5.408;2022-08-14T15:36:26;36.10;29.30
70202;DHT22;57724;52.164;5.408;2022-08-14T15:38:55;36.40;30.30
70202;DHT22;57724;52.164;5.408;2022-08-14T15:41:22;36.00;30.00
70202;DHT22;57724;52.164;5.408;2022-08-14T15:43:48;35.90;29.30
70202;DHT22;57724;52.164;5.408;2022-08-14T15:46:19;35.70;43.60
70202;DHT22;57724;52.164;5.408;2022-08-14T15:49:07;35.90;42.50
70202;DHT22;57724;52.164;5.408;2022-08-14T15:51:35;36.00;42.40
70202;DHT22;57724;52.164;5.408;2022-08-14T15:54:07;36.30;43.40
70202;DHT22;57724;52.164;5.408;2022-08-14T15:56:37;35.20;30.00
70202;DHT22;57724;52.164;5.408;2022-08-14T15:59:09;35.30;43.80
70202;DHT22;57724;52.164;5.408;2022-08-14T16:01:38;34.80;43.80
70202;DHT22;57724;52.164;5.408;2022-08-14T16:04:20;35.00;43.60
70202;DHT22;57724;52.164;5.408;2022-08-14T16:06:49;36.00;43.90
70202;DHT22;57724;52.164;5.408;2022-08-14T16:09:21;33.50;42.70
70202;DHT22;57724;52.164;5.408;2022-08-14T16:11:48;33.70;44.70
70202;DHT22;57724;52.164;5.408;2022-08-14T16:14:19;33.50;42.90
70202;DHT22;57724;52.164;5.408;2022-08-14T16:16:47;34.70;45.00
70202;DHT22;57724;52.164;5.408;2022-08-14T16:19:27;35.80;45.10
70202;DHT22;57724;52.164;5.408;2022-08-14T16:22:04;34.70;31.70
70202;DHT22;57724;52.164;5.408;2022-08-14T16:24:51;36.00;45.40
70202;DHT22;57724;52.164;5.408;2022-08-14T16:27:30;34.20;43.60
70202;DHT22;57724;52.164;5.408;2022-08-14T16:30:12;34.70;44.50
70202;DHT22;57724;52.164;5.408;2022-08-14T16:33:01;33.10;43.20
70202;DHT22;57724;52.164;5.408;2022-08-14T16:35:33;34.20;45.00
70202;DHT22;57724;52.164;5.408;2022-08-14T16:38:22;33.20;44.70
70202;DHT22;57724;52.164;5.408;2022-08-14T16:41:13;34.50;45.80
70202;DHT22;57724;52.164;5.408;2022-08-14T16:43:49;32.60;44.60
70202;DHT22;57724;52.164;5.408;2022-08-14T16:46:18;34.00;33.30
70202;DHT22;57724;52.164;5.408;2022-08-14T16:48:49;34.00;47.20
70202;DHT22;57724;52.164;5.408;2022-08-14T16:51:25;36.40;47.80
70202;DHT22;57724;52.164;5.408;2022-08-14T16:53:55;33.20;46.00
70202;DHT22;57724;52.164;5.408;2022-08-14T16:56:23;33.90;33.40
70202;DHT22;57724;52.164;5.408;2022-08-14T16:59:11;33.60;45.10
70202;DHT22;57724;52.164;5.408;2022-08-14T17:01:58;34.00;45.50
70202;DHT22;57724;52.164;5.408;2022-08-14T17:04:27;32.90;45.10
70202;DHT22;57724;52.164;5.408;2022-08-14T17:06:56;34.60;46.60
70202;DHT22;57724;52.164;5.408;2022-08-14T17:12:20;33.10;45.80
70202;DHT22;57724;52.164;5.408;2022-08-14T17:15:08;34.40;47.20
70202;DHT22;57724;52.164;5.408;2022-08-14T17:17:47;34.10;46.90
70202;DHT22;57724;52.164;5.408;2022-08-14T17:20:23;32.80;46.00
70202;DHT22;57724;52.164;5.408;2022-08-14T17:23:10;32.80;33.20
70202;DHT22;57724;52.164;5.408;2022-08-14T17:28:21;32.60;48.90
70202;DHT22;57724;52.164;5.408;2022-08-14T17:31:09;31.70;47.60
70202;DHT22;57724;52.164;5.408;2022-08-14T17:33:38;32.80;48.90
70202;DHT22;57724;52.164;5.408;2022-08-14T17:36:15;32.20;34.10
70202;DHT22;57724;52.164;5.408;2022-08-14T17:39:02;31.60;48.70
70202;DHT22;57724;52.164;5.408;2022-08-14T17:44:16;31.10;49.00
70202;DHT22;57724;52.164;5.408;2022-08-14T17:46:53;31.00;49.30